createdAt,value
2022-07-25T00:02:03.595Z,3.40
2022-07-25T00:05:06.777Z,3.33
2022-07-25T00:08:10.754Z,3.20
2022-07-25T00:11:13.471Z,3.13
2022-07-25T00:14:16.056Z,3.78
2022-07-25T00:17:19.221Z,3.88
2022-07-25T00:20:21.796Z,3.60
2022-07-25T00:23:25.884Z,2.97
2022-07-25T00:26:28.565Z,3.38
2022-07-25T00:29:31.164Z,3.40
2022-07-25T00:32:33.917Z,3.22
2022-07-25T00:35:36.510Z,3.50
2022-07-25T00:38:40.518Z,3.58
2022-07-25T00:41:44.411Z,3.30
2022-07-25T00:44:47.025Z,2.80
2022-07-25T00:47:49.688Z,3.05
2022-07-25T00:50:52.471Z,3.42
2022-07-25T00:53:57.018Z,3.45
2022-07-25T00:56:59.654Z,3.80
2022-07-25T01:00:02.861Z,2.47
2022-07-25T01:03:05.678Z,3.17
2022-07-25T01:06:09.162Z,3.33
2022-07-25T01:09:13.168Z,3.58
2022-07-25T01:12:15.849Z,3.45
2022-07-25T01:15:18.926Z,3.10
2022-07-25T01:18:21.692Z,3.67
2022-07-25T01:21:26.355Z,3.10
2022-07-25T01:24:30.208Z,3.63
2022-07-25T01:27:32.852Z,2.65
2022-07-25T01:30:35.559Z,2.97
2022-07-25T01:33:38.235Z,3.03
2022-07-25T01:36:42.179Z,3.00
2022-07-25T01:39:44.850Z,2.88
2022-07-25T01:42:47.871Z,2.60
2022-07-25T01:45:50.458Z,2.65
2022-07-25T01:48:53.175Z,3.00
2022-07-25T01:51:57.236Z,3.00
2022-07-25T01:55:00.381Z,2.95
2022-07-25T01:58:03.616Z,3.50
2022-07-25T02:01:06.799Z,3.00
2022-07-25T02:04:10.000Z,2.95
2022-07-25T02:07:14.268Z,2.70
2022-07-25T02:10:16.855Z,3.15
2022-07-25T02:13:19.566Z,3.13
2022-07-25T02:16:28.828Z,3.80
2022-07-25T02:19:32.515Z,2.97
2022-07-25T02:22:36.481Z,2.50
2022-07-25T02:25:39.167Z,2.92
2022-07-25T02:28:42.634Z,2.85
2022-07-25T02:31:45.228Z,3.30
2022-07-25T02:34:47.799Z,2.63
2022-07-25T02:37:52.721Z,2.35
2022-07-25T02:40:55.377Z,2.78
2022-07-25T02:43:59.124Z,3.15
2022-07-25T02:47:01.720Z,3.10
2022-07-25T02:50:04.925Z,3.22
2022-07-25T02:53:09.176Z,2.90
2022-07-25T02:56:11.920Z,2.90
2022-07-25T02:59:16.784Z,3.08
2022-07-25T03:02:19.441Z,3.38
2022-07-25T03:05:22.096Z,2.95
2022-07-25T03:08:27.068Z,2.92
2022-07-25T03:11:29.670Z,2.78
2022-07-25T03:14:32.298Z,2.67
2022-07-25T03:17:34.976Z,2.92
2022-07-25T03:20:37.719Z,2.35
2022-07-25T03:23:41.688Z,2.83
2022-07-25T03:26:44.440Z,2.70
2022-07-25T03:29:47.274Z,2.65
2022-07-25T03:32:50.227Z,2.40
2022-07-25T03:35:52.790Z,2.42
2022-07-25T03:38:57.700Z,2.72
2022-07-25T03:42:00.301Z,2.83
2022-07-25T03:45:02.935Z,2.45
2022-07-25T03:48:05.713Z,2.70
2022-07-25T03:51:08.475Z,2.38
2022-07-25T03:54:13.628Z,2.60
2022-07-25T03:57:16.245Z,2.55
2022-07-25T04:00:18.845Z,2.67
2022-07-25T04:03:21.542Z,2.20
2022-07-25T04:06:24.415Z,2.40
2022-07-25T04:09:28.420Z,2.20
2022-07-25T04:12:35.924Z,3.08
2022-07-25T04:15:38.648Z,2.70
2022-07-25T04:18:41.517Z,2.53
2022-07-25T04:21:45.192Z,2.25
2022-07-25T04:24:49.639Z,2.20
2022-07-25T04:27:53.086Z,1.95
2022-07-25T04:30:56.655Z,2.10
2022-07-25T04:33:59.252Z,1.98
2022-07-25T04:37:02.507Z,2.17
2022-07-25T04:40:07.302Z,2.53
2022-07-25T04:43:09.896Z,2.40
2022-07-25T04:46:12.771Z,1.73
2022-07-25T04:49:15.474Z,1.83
2022-07-25T04:52:19.307Z,1.85
2022-07-25T04:55:23.478Z,2.13
2022-07-25T04:58:26.605Z,2.47
2022-07-25T05:01:29.364Z,2.30
2022-07-25T05:04:32.327Z,1.50
2022-07-25T05:07:37.872Z,1.75
2022-07-25T05:10:41.843Z,1.85
2022-07-25T05:13:45.053Z,1.80
2022-07-25T05:16:47.654Z,1.33
2022-07-25T05:19:50.361Z,1.52
2022-07-25T05:22:52.943Z,1.90
2022-07-25T05:25:57.612Z,2.25
2022-07-25T05:29:00.255Z,1.85
2022-07-25T05:32:02.934Z,1.88
2022-07-25T05:35:05.989Z,1.70
2022-07-25T05:38:08.713Z,1.40
2022-07-25T05:41:13.577Z,1.88
2022-07-25T05:44:16.145Z,1.60
2022-07-25T05:47:19.565Z,1.92
2022-07-25T05:50:23.388Z,1.80
2022-07-25T05:53:26.590Z,1.63
2022-07-25T05:56:31.011Z,1.75
2022-07-25T05:59:33.640Z,1.52
2022-07-25T06:02:36.364Z,1.90
2022-07-25T06:05:39.886Z,1.60
2022-07-25T06:08:42.799Z,1.27
2022-07-25T06:11:54.654Z,2.05
2022-07-25T06:15:02.735Z,1.50
2022-07-25T06:18:06.031Z,1.60
2022-07-25T06:21:08.692Z,1.70
2022-07-25T06:24:11.343Z,1.55
2022-07-25T06:27:20.073Z,2.20
2022-07-25T06:30:23.683Z,1.50
2022-07-25T06:33:26.240Z,1.65
2022-07-25T06:36:32.314Z,1.80
2022-07-25T06:39:35.906Z,1.88
2022-07-25T06:42:40.643Z,1.75
2022-07-25T06:45:47.272Z,1.85
2022-07-25T06:48:49.942Z,1.95
2022-07-25T06:51:52.633Z,1.75
2022-07-25T06:54:55.215Z,1.70
2022-07-25T06:57:59.204Z,1.52
2022-07-25T07:01:02.170Z,1.60
2022-07-25T07:04:05.734Z,1.58
2022-07-25T07:07:08.675Z,1.77
2022-07-25T07:10:11.388Z,1.77
2022-07-25T07:13:20.707Z,1.77
2022-07-25T07:16:26.853Z,1.33
2022-07-25T07:19:29.458Z,1.83
2022-07-25T07:22:32.869Z,1.60
2022-07-25T07:25:37.059Z,1.55
2022-07-25T07:28:41.211Z,1.90
2022-07-25T07:31:43.920Z,1.88
2022-07-25T07:34:46.597Z,1.48
2022-07-25T07:37:49.200Z,1.70
2022-07-25T07:40:51.851Z,1.92
2022-07-25T07:43:56.427Z,2.30
2022-07-25T07:47:02.521Z,2.30
2022-07-25T07:50:05.624Z,2.38
2022-07-25T07:53:08.469Z,2.30
2022-07-25T07:56:10.246Z,2.20
2022-07-25T07:59:14.220Z,2.35
2022-07-25T08:02:17.222Z,2.17
2022-07-25T08:05:23.381Z,2.38
2022-07-25T08:08:30.906Z,2.60
2022-07-25T08:11:34.082Z,2.53
2022-07-25T08:14:38.027Z,2.92
2022-07-25T08:17:40.872Z,2.75
2022-07-25T08:20:43.570Z,2.75
2022-07-25T08:23:47.170Z,2.42
2022-07-25T08:26:49.801Z,2.65
2022-07-25T08:29:53.763Z,3.13
2022-07-25T08:32:57.384Z,2.65
2022-07-25T08:36:00.137Z,3.70
2022-07-25T08:39:02.740Z,3.17
2022-07-25T08:42:09.188Z,3.10
2022-07-25T08:45:16.266Z,3.00
2022-07-25T08:48:20.004Z,3.20
2022-07-25T08:51:23.420Z,3.50
2022-07-25T08:54:26.197Z,3.17
2022-07-25T08:57:28.891Z,3.78
2022-07-25T09:00:33.964Z,3.78
2022-07-25T09:03:36.725Z,2.97
2022-07-25T09:06:49.467Z,3.03
2022-07-25T09:09:52.102Z,3.05
2022-07-25T09:12:55.301Z,3.05
2022-07-25T09:16:00.557Z,3.28
2022-07-25T09:19:13.990Z,3.13
2022-07-25T09:22:16.797Z,3.40
2022-07-25T09:25:23.337Z,3.10
2022-07-25T09:28:25.960Z,3.42
2022-07-25T09:31:34.899Z,3.00
2022-07-25T09:34:38.458Z,3.30
2022-07-25T09:37:41.250Z,3.58
2022-07-25T09:40:54.178Z,3.80
2022-07-25T09:43:57.627Z,3.38
2022-07-25T09:47:10.734Z,3.55
2022-07-25T09:50:13.837Z,3.22
2022-07-25T09:53:16.770Z,3.13
2022-07-25T09:56:19.373Z,3.42
2022-07-25T09:59:21.976Z,3.38
2022-07-25T10:02:33.508Z,2.97
2022-07-25T10:05:45.131Z,3.10
2022-07-25T10:08:48.665Z,3.03
2022-07-25T10:12:04.262Z,3.67
2022-07-25T10:15:08.688Z,2.85
2022-07-25T10:18:13.394Z,3.33
2022-07-25T10:21:26.082Z,3.03
2022-07-25T10:24:34.567Z,3.00
2022-07-25T10:27:43.004Z,3.25
2022-07-25T10:30:47.428Z,3.80
2022-07-25T10:33:53.931Z,3.00
2022-07-25T10:36:57.281Z,3.25
2022-07-25T10:40:00.561Z,3.15
2022-07-25T10:43:04.460Z,2.88
2022-07-25T10:46:12.309Z,3.22
2022-07-25T10:49:29.120Z,3.80
2022-07-25T10:52:41.285Z,3.17
2022-07-25T10:56:04.864Z,3.20
2022-07-25T10:59:08.603Z,2.95
2022-07-25T11:02:16.398Z,2.80
2022-07-25T11:05:20.501Z,3.00
2022-07-25T11:08:31.346Z,3.20
2022-07-25T11:11:35.070Z,2.95
2022-07-25T11:14:41.273Z,3.00
2022-07-25T11:17:50.610Z,3.35
2022-07-25T11:21:05.770Z,3.13
2022-07-25T11:24:09.077Z,3.40
2022-07-25T11:27:12.983Z,3.13
2022-07-25T11:30:16.789Z,3.15
2022-07-25T11:33:19.455Z,3.20
2022-07-25T11:36:23.674Z,2.90
2022-07-25T11:39:27.134Z,3.13
2022-07-25T11:42:39.924Z,2.92
2022-07-25T11:45:43.871Z,2.75
2022-07-25T11:48:47.738Z,3.17
2022-07-25T11:51:51.853Z,2.85
2022-07-25T11:54:56.916Z,3.28
2022-07-25T11:58:01.192Z,3.25
2022-07-25T12:01:11.621Z,3.35
2022-07-25T12:04:15.332Z,3.17
2022-07-25T12:07:19.314Z,2.70
2022-07-25T12:10:23.268Z,2.80
2022-07-25T12:13:26.580Z,2.72
2022-07-25T12:16:29.323Z,3.03
2022-07-25T12:19:32.974Z,3.13
2022-07-25T12:22:36.966Z,2.75
2022-07-25T12:25:40.418Z,3.42
2022-07-25T12:28:43.255Z,3.00
2022-07-25T12:31:46.271Z,3.33
2022-07-25T12:34:48.813Z,3.08
2022-07-25T12:37:52.966Z,2.55
2022-07-25T12:40:56.105Z,2.55
2022-07-25T12:44:00.478Z,3.58
2022-07-25T12:47:03.138Z,3.08
2022-07-25T12:50:06.232Z,3.17
2022-07-25T12:53:10.382Z,3.05
2022-07-25T12:56:13.149Z,3.28
2022-07-25T12:59:15.746Z,2.97
2022-07-25T13:02:19.265Z,3.03
2022-07-25T13:05:22.217Z,2.63
2022-07-25T13:08:26.218Z,3.17
2022-07-25T13:11:28.866Z,2.90
2022-07-25T13:14:31.479Z,2.95
2022-07-25T13:17:34.317Z,2.95
2022-07-25T13:20:37.767Z,2.55
2022-07-25T13:23:41.854Z,3.17
2022-07-25T13:26:44.605Z,3.13
2022-07-25T13:29:47.254Z,2.90
2022-07-25T13:32:49.859Z,3.15
2022-07-25T13:35:52.732Z,3.47
2022-07-25T13:38:56.719Z,3.38
2022-07-25T13:41:59.354Z,3.03
2022-07-25T13:45:01.924Z,2.97
2022-07-25T13:48:28.456Z,2.97
2022-07-25T13:51:27.752Z,3.47
2022-07-25T13:54:31.795Z,2.78
2022-07-25T13:57:35.482Z,3.70
2022-07-25T14:00:39.026Z,2.95
2022-07-25T14:03:42.442Z,3.17
2022-07-25T14:06:45.164Z,3.03
2022-07-25T14:09:49.173Z,3.33
2022-07-25T14:12:51.829Z,3.28
2022-07-25T14:15:55.659Z,2.88
2022-07-25T14:18:58.794Z,3.05
2022-07-25T14:22:01.435Z,3.83
2022-07-25T14:25:05.801Z,3.28
2022-07-25T14:28:09.124Z,3.38
2022-07-25T14:31:12.461Z,3.20
2022-07-25T14:34:16.358Z,3.05
2022-07-25T14:37:20.104Z,3.50
2022-07-25T14:40:24.232Z,3.53
2022-07-25T14:43:26.973Z,3.25
2022-07-25T14:46:29.759Z,3.33
2022-07-25T14:49:32.564Z,3.67
2022-07-25T14:52:35.169Z,3.45
2022-07-25T14:55:39.184Z,3.60
2022-07-25T14:58:41.999Z,3.40
2022-07-25T15:01:44.621Z,3.33
2022-07-25T15:04:47.894Z,3.38
2022-07-25T15:07:50.592Z,3.00
2022-07-25T15:10:54.925Z,2.95
2022-07-25T15:13:58.329Z,3.85
2022-07-25T15:17:00.948Z,3.83
2022-07-25T15:20:03.680Z,5.38
2022-07-25T15:23:06.446Z,5.32
2022-07-25T15:26:10.487Z,5.15
2022-07-25T15:29:18.705Z,5.25
2022-07-25T15:32:21.371Z,4.80
2022-07-25T15:35:24.030Z,5.43
2022-07-25T15:38:26.933Z,4.78
2022-07-25T15:41:31.079Z,4.65
2022-07-25T15:44:33.698Z,4.43
2022-07-25T15:47:36.583Z,4.30
2022-07-25T15:50:40.360Z,3.63
2022-07-25T15:53:43.192Z,3.50
2022-07-25T15:56:47.249Z,3.25
2022-07-25T15:59:49.882Z,4.13
2022-07-25T16:02:52.564Z,3.38
2022-07-25T16:05:56.570Z,3.22
2022-07-25T16:08:59.748Z,3.28
2022-07-25T16:12:03.820Z,3.70
2022-07-25T16:15:07.673Z,3.40
2022-07-25T16:18:10.318Z,3.45
2022-07-25T16:21:12.912Z,3.65
2022-07-25T16:24:15.545Z,3.15
2022-07-25T16:27:19.910Z,3.20
2022-07-25T16:30:22.604Z,3.30
2022-07-25T16:33:25.493Z,3.33
2022-07-25T16:36:29.118Z,3.35
2022-07-25T16:39:32.880Z,2.95
2022-07-25T16:42:37.413Z,3.80
2022-07-25T16:45:42.141Z,3.40
2022-07-25T16:48:44.869Z,2.72
2022-07-25T16:51:47.647Z,2.97
2022-07-25T16:54:50.724Z,2.58
2022-07-25T16:57:55.009Z,2.90
2022-07-25T17:00:57.611Z,2.42
2022-07-25T17:04:00.318Z,2.53
2022-07-25T17:07:02.921Z,2.95
2022-07-25T17:10:05.853Z,2.30
2022-07-25T17:13:09.933Z,2.90
2022-07-25T17:16:13.041Z,2.30
2022-07-25T17:19:15.679Z,2.25
2022-07-25T17:22:18.433Z,2.70
2022-07-25T17:25:21.064Z,2.40
2022-07-25T17:28:25.361Z,2.80
2022-07-25T17:31:28.105Z,2.33
2022-07-25T17:34:30.885Z,2.70
2022-07-25T17:37:33.520Z,2.85
2022-07-25T17:40:36.759Z,2.83
2022-07-25T17:43:40.819Z,2.47
2022-07-25T17:46:46.917Z,2.22
2022-07-25T17:49:49.690Z,2.30
2022-07-25T17:52:52.456Z,2.70
2022-07-25T17:55:55.151Z,2.35
2022-07-25T17:58:59.211Z,2.50
2022-07-25T18:02:02.550Z,2.40
2022-07-25T18:05:05.711Z,2.75
2022-07-25T18:08:08.532Z,2.88
2022-07-25T18:11:11.290Z,2.35
2022-07-25T18:14:15.277Z,2.88
2022-07-25T18:17:17.899Z,2.88
2022-07-25T18:20:21.859Z,2.33
2022-07-25T18:23:26.957Z,3.03
2022-07-25T18:26:29.792Z,2.60
2022-07-25T18:29:37.235Z,2.72
2022-07-25T18:32:40.177Z,2.80
2022-07-25T18:35:43.037Z,2.38
2022-07-25T18:38:45.673Z,2.15
2022-07-25T18:41:49.256Z,2.15
2022-07-25T18:44:53.220Z,2.90
2022-07-25T18:47:55.877Z,2.45
2022-07-25T18:50:58.590Z,1.88
2022-07-25T18:54:01.214Z,1.73
2022-07-25T18:57:04.087Z,2.08
2022-07-25T19:00:09.347Z,2.33
2022-07-25T19:03:11.979Z,1.80
2022-07-25T19:06:14.956Z,1.63
2022-07-25T19:09:17.925Z,2.10
2022-07-25T19:12:20.649Z,1.75
2022-07-25T19:15:26.287Z,1.77
2022-07-25T19:18:29.613Z,1.75
2022-07-25T19:21:32.808Z,1.50
2022-07-25T19:24:35.570Z,1.63
2022-07-25T19:27:38.312Z,1.65
2022-07-25T19:30:43.136Z,1.48
2022-07-25T19:33:46.605Z,1.40
2022-07-25T19:36:49.262Z,1.63
2022-07-25T19:39:53.127Z,1.98
2022-07-25T19:42:55.849Z,1.70
2022-07-25T19:46:00.403Z,1.70
2022-07-25T19:49:04.636Z,1.65
2022-07-25T19:52:07.753Z,1.65
2022-07-25T19:55:10.988Z,1.73
2022-07-25T19:58:13.661Z,1.73
2022-07-25T20:01:18.151Z,1.63
2022-07-25T20:04:20.794Z,2.03
2022-07-25T20:07:24.682Z,1.77
2022-07-25T20:10:27.536Z,1.70
2022-07-25T20:13:30.186Z,1.80
2022-07-25T20:16:34.275Z,1.58
2022-07-25T20:19:37.128Z,1.45
2022-07-25T20:22:41.685Z,2.03
2022-07-25T20:25:45.555Z,1.55
2022-07-25T20:28:48.334Z,1.55
2022-07-25T20:31:53.969Z,1.77
2022-07-25T20:34:57.034Z,1.83
2022-07-25T20:37:59.608Z,1.70
2022-07-25T20:41:02.300Z,1.80
2022-07-25T20:44:05.919Z,1.85
2022-07-25T20:47:13.465Z,1.60
2022-07-25T20:50:16.160Z,1.80
2022-07-25T20:53:19.543Z,1.48
2022-07-25T20:56:23.122Z,1.35
2022-07-25T20:59:25.757Z,1.95
2022-07-25T21:02:29.966Z,1.35
2022-07-25T21:05:33.271Z,1.67
2022-07-25T21:08:35.999Z,1.95
2022-07-25T21:11:38.642Z,1.67
2022-07-25T21:14:41.265Z,1.60
2022-07-25T21:17:45.803Z,1.77
2022-07-25T21:20:48.903Z,1.42
2022-07-25T21:23:51.598Z,1.63
2022-07-25T21:26:54.449Z,1.75
2022-07-25T21:29:57.205Z,1.52
2022-07-25T21:33:02.239Z,2.08
2022-07-25T21:36:09.001Z,1.63
2022-07-25T21:39:11.717Z,1.25
2022-07-25T21:42:14.310Z,1.70
2022-07-25T21:45:17.025Z,1.67
2022-07-25T21:48:43.113Z,1.80
2022-07-25T21:51:44.978Z,1.77
2022-07-25T21:54:48.713Z,1.48
2022-07-25T21:57:52.655Z,2.03
2022-07-25T22:00:57.267Z,1.48
2022-07-25T22:04:01.375Z,1.98
2022-07-25T22:07:04.827Z,1.83
2022-07-25T22:10:09.014Z,1.98
2022-07-25T22:13:13.849Z,1.77
2022-07-25T22:16:17.298Z,2.20
2022-07-25T22:19:22.650Z,1.77
2022-07-25T22:22:25.505Z,1.30
2022-07-25T22:25:28.200Z,1.98
2022-07-25T22:28:31.484Z,1.92
2022-07-25T22:31:34.492Z,2.75
2022-07-25T22:34:38.549Z,1.63
2022-07-25T22:37:41.764Z,1.55
2022-07-25T22:40:44.409Z,1.83
2022-07-25T22:43:57.256Z,1.40
2022-07-25T22:47:01.880Z,1.73
2022-07-25T22:50:06.453Z,1.85
2022-07-25T22:53:12.504Z,1.77
2022-07-25T22:56:16.063Z,1.75
2022-07-25T22:59:19.311Z,1.80
2022-07-25T23:02:21.987Z,1.67
2022-07-25T23:05:25.915Z,1.98
2022-07-25T23:08:28.569Z,1.52
2022-07-25T23:11:31.293Z,1.85
2022-07-25T23:14:35.755Z,1.80
2022-07-25T23:17:38.368Z,1.75
2022-07-25T23:20:42.400Z,1.88
2022-07-25T23:23:44.975Z,2.50
2022-07-25T23:26:47.544Z,2.35
2022-07-25T23:29:51.345Z,2.25
2022-07-25T23:32:53.942Z,1.75
2022-07-25T23:35:58.101Z,1.92
2022-07-25T23:39:00.817Z,1.80
2022-07-25T23:42:05.208Z,2.05
2022-07-25T23:45:08.372Z,2.10
2022-07-25T23:48:11.877Z,1.73
2022-07-25T23:51:16.329Z,1.73
2022-07-25T23:54:19.397Z,1.45
2022-07-25T23:57:22.031Z,1.67
